Terminal Aerodrome Forecast
Issued by NWS

Home | Current Version | Previous Version | Graphics & Text | Print | Product List | Glossary On
Versions: 1 2 3 4 5 6 7 8 9 10 11 12 13 14 15 16 17 18 19 20 21 22 23
538
FTUS43 KICT 192339
TAFSLN
TAF
KSLN 192339Z 2000/2024 01011KT P6SM SCT015 OVC025
     FM200400 03011KT P6SM SCT009 OVC015
      TEMPO 2004/2008 6SM -FZDZPL
     FM201200 35016G23KT P6SM SCT015 BKN030=

USA.gov is the U.S. government's official web portal to all federal, state and local government web resources and services.